Genoa, Arkansas
Current Conditions -  °F | °C
As of 10:53 AM on Saturday 25 Oct 2014 (Local Time) from KTXK Reporting Station
Clear Clear  
Wind Chill: 75°   Ceiling: Unl
Heat Index: 75°   Visibility: 10mi
Dew Point: 60°   Wind: 13mph
Humidity: 60%   Direction: 250°WSW
Pressure: 30.16"   Gusts: NA
Location:  33.38°N, 93.91°W
Report Text: KTXK 251553Z 25011KT 10SM CLR 24/16 A3016 RMK AO2 SLP211 T02390156
Loading
Personal Weather Stations






























Interactive Weather Map
Tropical Storm Tracking
New forecast layout! Learn more

10-Day Weather Forecast

Advertisements
Track Severe Weather on mobile